createdAt,value
2023-03-16T00:02:33.058Z,99268.88
2023-03-16T00:05:34.032Z,99265.49
2023-03-16T00:08:34.059Z,99262.61
2023-03-16T00:11:40.076Z,99264.70
2023-03-16T00:14:42.166Z,99255.88
2023-03-16T00:17:42.291Z,99254.58
2023-03-16T00:20:48.388Z,99254.29
2023-03-16T00:23:52.363Z,99252.48
2023-03-16T00:27:03.943Z,99258.17
2023-03-16T00:30:09.104Z,99261.14
2023-03-16T00:33:12.119Z,99264.67
2023-03-16T00:36:16.146Z,99260.84
2023-03-16T00:39:18.181Z,99259.16
2023-03-16T00:42:19.135Z,99259.54
2023-03-16T00:45:29.145Z,99260.09
2023-03-16T00:48:30.156Z,99259.21
2023-03-16T00:51:32.199Z,99260.95
2023-03-16T00:54:33.386Z,99264.19
2023-03-16T00:57:35.293Z,99266.46
2023-03-16T01:00:36.248Z,99266.73
2023-03-16T01:03:38.240Z,99264.77
2023-03-16T01:06:39.963Z,99264.77
2023-03-16T01:09:43.266Z,99267.98
2023-03-16T01:12:48.720Z,99272.57
2023-03-16T01:15:52.407Z,99269.56
2023-03-16T01:18:58.292Z,99270.09
2023-03-16T01:22:01.323Z,99274.41
2023-03-16T01:25:04.429Z,99282.76
2023-03-16T01:28:05.222Z,99282.89
2023-03-16T01:31:14.199Z,99282.52
2023-03-16T01:34:23.248Z,99287.88
2023-03-16T01:37:30.546Z,99287.34
2023-03-16T01:40:57.233Z,99290.28
2023-03-16T01:43:58.251Z,99287.55
2023-03-16T01:47:01.316Z,99287.21
2023-03-16T01:50:03.191Z,99292.72
2023-03-16T01:53:11.267Z,99296.36
2023-03-16T01:56:15.255Z,99303.06
2023-03-16T01:59:21.515Z,99299.16
2023-03-16T02:02:21.225Z,99303.06
2023-03-16T02:05:28.582Z,99305.36
2023-03-16T02:08:29.303Z,99314.23
2023-03-16T02:11:30.240Z,99308.92
2023-03-16T02:14:38.249Z,99310.36
2023-03-16T02:17:42.554Z,99312.06
2023-03-16T02:21:14.354Z,99310.98
2023-03-16T02:24:17.306Z,99318.78
2023-03-16T02:27:25.594Z,99320.71
2023-03-16T02:30:27.512Z,99320.90
2023-03-16T02:33:35.474Z,99322.79
2023-03-16T02:36:41.570Z,99327.81
2023-03-16T02:39:44.555Z,99323.37
2023-03-16T02:42:45.353Z,99326.39
2023-03-16T02:46:12.354Z,99326.83
2023-03-16T02:49:33.496Z,99316.73
2023-03-16T02:52:34.632Z,99311.48
2023-03-16T02:55:39.107Z,99307.42
2023-03-16T02:58:42.353Z,99305.34
2023-03-16T03:01:52.446Z,99312.99
2023-03-16T03:04:58.095Z,99315.39
2023-03-16T03:08:03.570Z,99319.15
2023-03-16T03:11:04.452Z,99316.30
2023-03-16T03:14:04.898Z,99312.95
2023-03-16T03:17:06.338Z,99312.17
2023-03-16T03:20:08.376Z,99312.85
2023-03-16T03:23:10.399Z,99316.11
2023-03-16T03:26:12.375Z,99321.69
2023-03-16T03:29:14.777Z,99322.46
2023-03-16T03:32:18.458Z,99326.52
2023-03-16T03:35:31.728Z,99327.89
2023-03-16T03:38:32.642Z,99331.21
2023-03-16T03:41:33.580Z,99327.79
2023-03-16T03:44:41.622Z,99332.84
2023-03-16T03:47:48.687Z,99332.11
2023-03-16T03:50:53.434Z,99334.77
2023-03-16T03:54:13.453Z,99332.59
2023-03-16T03:57:18.195Z,99331.44
2023-03-16T04:00:29.225Z,99342.12
2023-03-16T04:03:35.579Z,99340.08
2023-03-16T04:06:35.472Z,99337.29
2023-03-16T04:09:35.510Z,99343.27
2023-03-16T04:12:39.471Z,99344.17
2023-03-16T04:15:39.504Z,99341.66
2023-03-16T04:18:52.486Z,99341.35
2023-03-16T04:21:55.464Z,99344.02
2023-03-16T04:24:58.470Z,99341.02
2023-03-16T04:28:01.481Z,99347.10
2023-03-16T04:31:02.488Z,99347.69
2023-03-16T04:34:08.504Z,99351.83
2023-03-16T04:37:09.512Z,99355.59
2023-03-16T04:40:17.574Z,99358.83
2023-03-16T04:43:24.520Z,99352.03
2023-03-16T04:46:29.656Z,99359.38
2023-03-16T04:49:35.492Z,99361.96
2023-03-16T04:52:35.513Z,99367.52
2023-03-16T04:55:38.554Z,99375.92
2023-03-16T04:58:40.803Z,99382.66
2023-03-16T05:01:40.762Z,99384.67
2023-03-16T05:04:41.608Z,99382.89
2023-03-16T05:07:56.569Z,99389.64
2023-03-16T05:11:03.781Z,99392.19
2023-03-16T05:14:12.577Z,99394.75
2023-03-16T05:17:21.546Z,99399.65
2023-03-16T05:20:27.927Z,99400.40
2023-03-16T05:23:31.029Z,99410.61
2023-03-16T05:26:32.633Z,99417.52
2023-03-16T05:29:36.590Z,99425.38
2023-03-16T05:32:37.616Z,99428.60
2023-03-16T05:35:42.691Z,99432.96
2023-03-16T05:38:46.625Z,99440.95
2023-03-16T05:41:55.699Z,99443.08
2023-03-16T05:45:08.657Z,99447.58
2023-03-16T05:48:21.588Z,99450.70
2023-03-16T05:51:28.739Z,99456.61
2023-03-16T05:54:30.893Z,99464.14
2023-03-16T05:57:30.681Z,99464.52
2023-03-16T06:00:33.765Z,99463.04
2023-03-16T06:03:48.839Z,99459.70
2023-03-16T06:10:21.867Z,99465.48
2023-03-16T06:13:27.351Z,99470.55
2023-03-16T06:16:45.721Z,99473.11
2023-03-16T06:19:53.670Z,99471.38
2023-03-16T06:23:12.687Z,99475.50
2023-03-16T06:26:18.975Z,99481.13
2023-03-16T06:29:24.701Z,99488.92
2023-03-16T06:32:32.027Z,99490.27
2023-03-16T06:35:54.156Z,99493.98
2023-03-16T06:39:27.222Z,99495.13
2023-03-16T06:42:35.403Z,99496.55
2023-03-16T06:45:55.326Z,99500.41
2023-03-16T06:49:13.295Z,99505.04
2023-03-16T06:52:33.934Z,99508.94
2023-03-16T06:55:36.752Z,99512.34
2023-03-16T06:58:38.760Z,99518.13
2023-03-16T07:01:43.800Z,99515.80
2023-03-16T07:04:54.588Z,99513.73
2023-03-16T07:11:27.653Z,99515.80
2023-03-16T07:18:01.970Z,99516.89
2023-03-16T07:21:07.769Z,99528.48
2023-03-16T07:24:17.898Z,99531.16
2023-03-16T07:27:21.829Z,99529.73
2023-03-16T07:30:27.416Z,99537.41
2023-03-16T07:33:47.309Z,99542.64
2023-03-16T07:37:13.471Z,99550.25
2023-03-16T07:40:27.295Z,99558.65
2023-03-16T07:43:47.772Z,99564.05
2023-03-16T07:46:56.054Z,99561.70
2023-03-16T07:50:12.851Z,99560.80
2023-03-16T07:53:20.878Z,99561.70
2023-03-16T07:56:48.693Z,99562.78
2023-03-16T07:59:57.016Z,99562.81
2023-03-16T08:03:12.563Z,99565.04
2023-03-16T08:06:18.357Z,99560.67
2023-03-16T08:09:29.241Z,99559.64
2023-03-16T08:12:32.152Z,99566.86
2023-03-16T08:15:40.565Z,99570.05
2023-03-16T08:18:54.143Z,99564.06
2023-03-16T08:22:01.402Z,99568.85
2023-03-16T08:25:09.177Z,99567.33
2023-03-16T08:28:22.763Z,99566.30
2023-03-16T08:31:27.768Z,99565.08
2023-03-16T08:34:57.548Z,99566.20
2023-03-16T08:38:06.024Z,99568.98
2023-03-16T08:41:10.942Z,99565.55
2023-03-16T08:44:13.940Z,99569.61
2023-03-16T08:47:16.040Z,99575.77
2023-03-16T08:50:28.958Z,99578.05
2023-03-16T08:53:40.805Z,99587.54
2023-03-16T08:56:40.959Z,99591.63
2023-03-16T08:59:44.987Z,99597.59
2023-03-16T09:03:00.718Z,99597.82
2023-03-16T09:06:03.957Z,99598.73
2023-03-16T09:09:06.949Z,99603.34
2023-03-16T09:12:08.632Z,99613.14
2023-03-16T09:15:26.368Z,99617.27
2023-03-16T09:22:04.616Z,99619.16
2023-03-16T09:25:13.233Z,99619.41
2023-03-16T09:28:13.544Z,99624.01
2023-03-16T09:31:29.275Z,99625.13
2023-03-16T09:34:35.177Z,99622.25
2023-03-16T09:38:06.339Z,99623.61
2023-03-16T09:41:20.127Z,99617.69
2023-03-16T09:44:38.695Z,99618.81
2023-03-16T09:51:22.679Z,99625.08
2023-03-16T09:54:38.233Z,99624.89
2023-03-16T09:57:49.468Z,99625.23
2023-03-16T10:01:37.882Z,99632.75
2023-03-16T10:04:58.239Z,99626.45
2023-03-16T10:08:28.828Z,99624.01
2023-03-16T10:12:09.585Z,99631.77
2023-03-16T10:15:30.207Z,99632.02
2023-03-16T10:18:38.054Z,99627.10
2023-03-16T10:24:56.693Z,99626.50
2023-03-16T10:28:04.920Z,99628.44
2023-03-16T10:31:13.367Z,99629.61
2023-03-16T10:34:15.107Z,99636.11
2023-03-16T10:37:27.346Z,99642.45
2023-03-16T10:40:31.066Z,99642.08
2023-03-16T10:47:22.659Z,99651.42
2023-03-16T10:50:31.611Z,99648.52
2023-03-16T10:57:02.611Z,99655.11
2023-03-16T11:00:15.656Z,99655.97
2023-03-16T11:03:41.240Z,99652.18
2023-03-16T11:07:02.479Z,99649.30
2023-03-16T11:10:11.440Z,99651.13
2023-03-16T11:13:35.432Z,99647.36
2023-03-16T11:17:06.096Z,99651.21
2023-03-16T11:23:47.453Z,99648.98
2023-03-16T11:26:56.843Z,99645.16
2023-03-16T11:30:05.231Z,99641.83
2023-03-16T11:33:13.287Z,99650.13
2023-03-16T11:36:24.625Z,99649.66
2023-03-16T11:39:26.260Z,99654.73
2023-03-16T11:42:38.231Z,99662.98
2023-03-16T11:45:49.254Z,99666.31
2023-03-16T11:48:49.279Z,99671.64
2023-03-16T11:51:57.687Z,99678.04
2023-03-16T11:54:58.834Z,99675.37
2023-03-16T11:58:12.265Z,99682.64
2023-03-16T12:01:35.284Z,99687.41
2023-03-16T12:05:23.301Z,99694.09
2023-03-16T12:08:45.261Z,99698.20
2023-03-16T12:12:08.830Z,99707.87
2023-03-16T12:15:13.986Z,99708.11
2023-03-16T12:18:31.270Z,99710.50
2023-03-16T12:21:34.547Z,99716.42
2023-03-16T12:24:38.630Z,99721.45
2023-03-16T12:31:38.231Z,99721.92
2023-03-16T12:47:24.397Z,99729.95
2023-03-16T12:50:37.372Z,99731.91
2023-03-16T12:54:19.036Z,99728.70
2023-03-16T13:01:26.116Z,99732.31
2023-03-16T13:08:33.985Z,99741.85
2023-03-16T13:16:00.865Z,99744.89
2023-03-16T13:19:08.971Z,99749.14
2023-03-16T13:34:54.757Z,99766.64
2023-03-16T13:38:16.449Z,99765.04
2023-03-16T13:45:44.418Z,99763.30
2023-03-16T13:53:15.685Z,99762.47
2023-03-16T13:56:49.772Z,99766.70
2023-03-16T14:00:07.355Z,99767.48
2023-03-16T14:03:32.653Z,99774.15
2023-03-16T14:10:29.834Z,99774.61
2023-03-16T14:14:04.948Z,99775.62
2023-03-16T14:21:29.411Z,99778.73
2023-03-16T14:36:07.907Z,99816.61
2023-03-16T14:39:28.443Z,99825.21
2023-03-16T14:42:45.048Z,99820.17
2023-03-16T14:46:12.837Z,99824.81
2023-03-16T14:49:35.878Z,99832.25
2023-03-16T14:52:42.395Z,99843.24
2023-03-16T14:55:47.606Z,99846.17
2023-03-16T14:59:08.214Z,99848.10
2023-03-16T15:02:11.593Z,99855.60
2023-03-16T15:05:15.579Z,99863.02
2023-03-16T15:08:21.856Z,99863.66
2023-03-16T15:11:30.647Z,99864.94
2023-03-16T15:14:49.818Z,99862.20
2023-03-16T15:17:57.627Z,99869.38
2023-03-16T15:21:03.645Z,99870.71
2023-03-16T15:24:06.034Z,99872.20
2023-03-16T15:27:07.690Z,99871.14
2023-03-16T15:30:09.672Z,99878.09
2023-03-16T15:33:15.916Z,99888.90
2023-03-16T15:36:31.175Z,99892.91
2023-03-16T15:39:41.464Z,99901.11
2023-03-16T15:42:43.680Z,99907.12
2023-03-16T15:45:47.688Z,99918.36
2023-03-16T15:48:50.706Z,99919.55
2023-03-16T15:51:51.882Z,99926.93
2023-03-16T15:54:54.924Z,99935.15
2023-03-16T15:57:58.942Z,99942.27
2023-03-16T16:01:02.926Z,99949.90
2023-03-16T16:04:13.894Z,99958.27
2023-03-16T16:07:21.789Z,99964.86
2023-03-16T16:10:31.218Z,99969.09
2023-03-16T16:13:45.063Z,99978.34
2023-03-16T16:16:54.509Z,99987.11
2023-03-16T16:20:07.207Z,100007.15
2023-03-16T16:23:16.736Z,100008.88
2023-03-16T16:26:21.958Z,100008.16
2023-03-16T16:33:10.151Z,100009.44
2023-03-16T16:36:22.440Z,100006.86
2023-03-16T16:39:29.277Z,100014.15
2023-03-16T16:42:37.600Z,100019.94
2023-03-16T16:45:44.760Z,100027.20
2023-03-16T16:48:51.199Z,100034.31
2023-03-16T16:52:02.066Z,100041.33
2023-03-16T16:55:01.742Z,100046.32
2023-03-16T16:58:18.569Z,100050.30
2023-03-16T17:01:48.982Z,100049.68
2023-03-16T17:05:00.141Z,100057.33
2023-03-16T17:08:12.352Z,100061.25
2023-03-16T17:11:40.449Z,100067.79
2023-03-16T17:14:52.377Z,100079.45
2023-03-16T17:18:18.046Z,100074.27
2023-03-16T17:21:27.875Z,100068.61
2023-03-16T17:24:49.033Z,100069.52
2023-03-16T17:28:05.875Z,100076.45
2023-03-16T17:31:45.979Z,100081.38
2023-03-16T17:35:19.241Z,100078.84
2023-03-16T17:38:34.786Z,100087.85
2023-03-16T17:41:43.408Z,100088.88
2023-03-16T17:44:56.346Z,100088.66
2023-03-16T17:48:07.659Z,100092.67
2023-03-16T17:51:26.830Z,100094.20
2023-03-16T17:54:39.527Z,100101.12
2023-03-16T17:57:52.608Z,100103.73
2023-03-16T18:01:05.243Z,100103.55
2023-03-16T18:04:13.935Z,100098.70
2023-03-16T18:07:24.959Z,100097.06
2023-03-16T18:10:55.720Z,100096.45
2023-03-16T18:13:59.827Z,100099.16
2023-03-16T18:17:03.893Z,100103.23
2023-03-16T18:20:10.052Z,100102.35
2023-03-16T18:23:12.001Z,100103.60
2023-03-16T18:26:14.363Z,100103.39
2023-03-16T18:29:16.245Z,100108.92
2023-03-16T18:32:18.011Z,100107.52
2023-03-16T18:35:18.961Z,100114.55
2023-03-16T18:38:30.970Z,100118.30
2023-03-16T18:41:35.012Z,100121.02
2023-03-16T18:44:36.983Z,100127.16
2023-03-16T18:47:39.300Z,100129.38
2023-03-16T18:50:41.030Z,100130.73
2023-03-16T18:53:42.028Z,100136.49
2023-03-16T18:56:42.994Z,100139.83
2023-03-16T18:59:43.988Z,100144.02
2023-03-16T19:02:57.455Z,100144.02
2023-03-16T19:06:00.972Z,100144.44
2023-03-16T19:09:01.523Z,100140.67
2023-03-16T19:12:03.428Z,100143.48
2023-03-16T19:15:07.543Z,100143.87
2023-03-16T19:18:11.096Z,100157.76
2023-03-16T19:21:40.817Z,100158.92
2023-03-16T19:25:02.251Z,100168.61
2023-03-16T19:28:17.098Z,100167.09
2023-03-16T19:31:48.183Z,100165.83
2023-03-16T19:35:21.635Z,100166.15
2023-03-16T19:38:29.787Z,100173.45
2023-03-16T19:41:44.034Z,100170.44
2023-03-16T19:48:22.380Z,100174.20
2023-03-16T19:51:35.712Z,100176.49
2023-03-16T19:54:47.395Z,100177.11
2023-03-16T19:57:52.404Z,100180.05
2023-03-16T20:00:57.008Z,100185.02
2023-03-16T20:04:01.178Z,100187.63
2023-03-16T20:07:14.440Z,100186.83
2023-03-16T20:10:25.210Z,100187.79
2023-03-16T20:17:01.993Z,100184.10
2023-03-16T20:20:11.955Z,100188.17
2023-03-16T20:23:19.954Z,100184.77
2023-03-16T20:26:35.653Z,100187.89
2023-03-16T20:29:44.425Z,100190.20
2023-03-16T20:32:47.504Z,100189.16
2023-03-16T20:35:52.536Z,100193.66
2023-03-16T20:39:03.346Z,100195.70
2023-03-16T20:42:17.250Z,100190.02
2023-03-16T20:45:33.231Z,100193.58
2023-03-16T20:48:40.163Z,100195.23
2023-03-16T20:51:53.027Z,100199.00
2023-03-16T20:55:01.658Z,100198.62
2023-03-16T20:58:13.478Z,100205.33
2023-03-16T21:01:40.312Z,100205.30
2023-03-16T21:04:57.530Z,100203.03
2023-03-16T21:08:04.322Z,100202.02
2023-03-16T21:11:14.630Z,100207.55
2023-03-16T21:14:21.908Z,100204.90
2023-03-16T21:17:43.664Z,100203.30
2023-03-16T21:20:44.898Z,100210.03
2023-03-16T21:23:49.245Z,100204.09
2023-03-16T21:26:51.325Z,100204.30
2023-03-16T21:29:56.280Z,100209.06
2023-03-16T21:32:59.272Z,100207.44
2023-03-16T21:36:02.283Z,100211.93
2023-03-16T21:39:05.516Z,100213.61
2023-03-16T21:42:05.200Z,100218.80
2023-03-16T21:45:06.199Z,100224.42
2023-03-16T21:48:11.339Z,100220.82
2023-03-16T21:51:13.421Z,100223.64
2023-03-16T21:54:15.252Z,100230.92
2023-03-16T21:57:26.153Z,100232.36
2023-03-16T22:00:28.888Z,100231.48
2023-03-16T22:03:50.184Z,100235.23
2023-03-16T22:06:52.274Z,100243.08
2023-03-16T22:09:54.245Z,100248.27
2023-03-16T22:12:55.592Z,100248.70
2023-03-16T22:16:00.853Z,100254.04
2023-03-16T22:19:03.257Z,100256.09
2023-03-16T22:22:07.549Z,100258.09
2023-03-16T22:25:10.283Z,100262.83
2023-03-16T22:28:15.274Z,100268.92
2023-03-16T22:31:16.558Z,100270.06
2023-03-16T22:34:16.294Z,100265.73
2023-03-16T22:37:19.394Z,100267.53
2023-03-16T22:40:19.695Z,100268.35
2023-03-16T22:43:32.945Z,100268.20
2023-03-16T22:46:38.340Z,100270.80
2023-03-16T22:49:40.358Z,100273.33
2023-03-16T22:52:44.648Z,100276.72
2023-03-16T22:55:45.535Z,100274.34
2023-03-16T22:58:56.052Z,100272.27
2023-03-16T23:02:03.147Z,100268.16
2023-03-16T23:05:05.506Z,100272.92
2023-03-16T23:08:10.556Z,100271.58
2023-03-16T23:11:11.409Z,100276.48
2023-03-16T23:14:15.702Z,100273.98
2023-03-16T23:17:28.395Z,100276.02
2023-03-16T23:20:32.732Z,100278.92
2023-03-16T23:23:37.389Z,100287.30
2023-03-16T23:26:42.389Z,100284.84
2023-03-16T23:29:44.088Z,100291.11
2023-03-16T23:32:45.515Z,100298.55
2023-03-16T23:35:47.460Z,100295.07
2023-03-16T23:38:51.532Z,100290.23
2023-03-16T23:41:57.528Z,100284.86
2023-03-16T23:44:58.488Z,100282.41
2023-03-16T23:48:01.654Z,100284.52
2023-03-16T23:51:03.415Z,100284.69
2023-03-16T23:54:05.487Z,100290.64
2023-03-16T23:57:06.567Z,100295.48
